createdAt,value
2023-02-12T00:00:20.092Z,102769.00
2023-02-12T00:02:47.829Z,102767.00
2023-02-12T00:05:16.548Z,102760.00
2023-02-12T00:07:45.677Z,102758.00
2023-02-12T00:10:13.786Z,102766.00
2023-02-12T00:12:41.517Z,102763.00
2023-02-12T00:15:09.960Z,102774.00
2023-02-12T00:17:37.734Z,102778.00
2023-02-12T00:20:05.913Z,102760.00
2023-02-12T00:22:33.662Z,102786.00
2023-02-12T00:25:02.766Z,102754.00
2023-02-12T00:27:34.067Z,102784.00
2023-02-12T00:30:01.798Z,102785.00
2023-02-12T00:32:29.560Z,102785.00
2023-02-12T00:34:57.560Z,102785.00
2023-02-12T00:37:25.322Z,102749.00
2023-02-12T00:39:55.529Z,102780.00
2023-02-12T00:42:24.616Z,102778.00
2023-02-12T00:44:52.466Z,102779.00
2023-02-12T00:47:20.248Z,102785.00
2023-02-12T00:49:48.152Z,102779.00
2023-02-12T00:52:15.990Z,102768.00
2023-02-12T00:54:43.742Z,102781.00
2023-02-12T00:57:11.618Z,102789.00
2023-02-12T00:59:42.298Z,102779.00
2023-02-12T01:02:10.083Z,102784.00
2023-02-12T01:04:38.106Z,102783.00
2023-02-12T01:07:05.847Z,102791.00
2023-02-12T01:09:33.967Z,102791.00
2023-02-12T01:12:01.720Z,102801.00
2023-02-12T01:14:29.598Z,102801.00
2023-02-12T01:16:58.706Z,102802.00
2023-02-12T01:19:26.424Z,102800.00
2023-02-12T01:21:54.323Z,102795.00
2023-02-12T01:24:22.096Z,102788.00
2023-02-12T01:26:49.888Z,102802.00
2023-02-12T01:29:17.734Z,102793.00
2023-02-12T01:31:45.563Z,102791.00
2023-02-12T01:34:14.750Z,102803.00
2023-02-12T01:36:42.683Z,102783.00
2023-02-12T01:39:13.218Z,102806.00
2023-02-12T01:41:43.001Z,102802.00
2023-02-12T01:44:14.287Z,102785.00
2023-02-12T01:46:43.723Z,102808.00
2023-02-12T01:49:18.148Z,102811.00
2023-02-12T01:51:48.119Z,102799.00
2023-02-12T01:54:19.891Z,102800.00
2023-02-12T01:56:48.010Z,102800.00
2023-02-12T01:59:16.022Z,102791.00
2023-02-12T02:01:44.661Z,102801.00
2023-02-12T02:04:18.199Z,102766.00
2023-02-12T02:06:51.519Z,102797.00
2023-02-12T02:09:20.917Z,102806.00
2023-02-12T02:12:06.131Z,102800.00
2023-02-12T02:14:34.213Z,102798.00
2023-02-12T02:17:29.090Z,102805.00
2023-02-12T02:20:27.749Z,102803.00
2023-02-12T02:23:10.576Z,102807.00
2023-02-12T02:26:09.663Z,102803.00
2023-02-12T02:28:57.244Z,102799.00
2023-02-12T02:31:31.857Z,102800.00
2023-02-12T02:34:05.540Z,102796.00
2023-02-12T02:36:50.788Z,102796.00
2023-02-12T02:39:30.618Z,102783.00
2023-02-12T02:42:02.726Z,102801.00
2023-02-12T02:44:38.315Z,102804.00
2023-02-12T02:47:16.095Z,102785.00
2023-02-12T02:49:48.212Z,102792.00
2023-02-12T02:52:19.736Z,102795.00
2023-02-12T02:54:50.524Z,102796.00
2023-02-12T02:57:22.958Z,102796.00
2023-02-12T02:59:56.179Z,102794.00
2023-02-12T03:02:29.344Z,102796.00
2023-02-12T03:05:01.077Z,102805.00
2023-02-12T03:07:30.863Z,102805.00
2023-02-12T03:10:02.529Z,102799.00
2023-02-12T03:12:35.561Z,102774.00
2023-02-12T03:15:09.902Z,102794.00
2023-02-12T03:17:43.188Z,102801.00
2023-02-12T03:20:16.286Z,102804.00
2023-02-12T03:22:51.356Z,102807.00
2023-02-12T03:25:24.359Z,102817.00
2023-02-12T03:27:59.254Z,102790.00
2023-02-12T03:30:39.178Z,102815.00
2023-02-12T03:33:17.601Z,102828.00
2023-02-12T03:35:56.730Z,102821.00
2023-02-12T03:38:38.565Z,102834.00
2023-02-12T03:41:10.109Z,102835.00
2023-02-12T03:43:50.247Z,102841.00
2023-02-12T03:46:23.101Z,102840.00
2023-02-12T03:48:59.828Z,102846.00
2023-02-12T03:51:34.588Z,102832.00
2023-02-12T03:54:03.575Z,102859.00
2023-02-12T03:56:36.282Z,102830.00
2023-02-12T03:59:05.096Z,102845.00
2023-02-12T04:01:34.300Z,102851.00
2023-02-12T04:04:08.719Z,102848.00
2023-02-12T04:06:37.113Z,102859.00
2023-02-12T04:09:07.552Z,102869.00
2023-02-12T04:11:44.188Z,102832.00
2023-02-12T04:14:19.415Z,102869.00
2023-02-12T04:16:52.537Z,102864.00
2023-02-12T04:19:31.885Z,102852.00
2023-02-12T04:22:15.448Z,102861.00
2023-02-12T04:24:54.748Z,102870.00
2023-02-12T04:27:27.244Z,102866.00
2023-02-12T04:29:59.768Z,102881.00
2023-02-12T04:32:33.778Z,102852.00
2023-02-12T04:35:08.415Z,102883.00
2023-02-12T04:37:41.433Z,102878.00
2023-02-12T04:40:13.436Z,102886.00
2023-02-12T04:42:45.266Z,102890.00
2023-02-12T04:45:13.671Z,102881.00
2023-02-12T04:47:41.425Z,102897.00
2023-02-12T04:50:11.600Z,102889.00
2023-02-12T04:52:39.557Z,102891.00
2023-02-12T04:55:07.849Z,102895.00
2023-02-12T04:57:35.623Z,102904.00
2023-02-12T05:00:05.711Z,102900.00
2023-02-12T05:02:34.856Z,102904.00
2023-02-12T05:05:02.747Z,102899.00
2023-02-12T05:07:31.923Z,102897.00
2023-02-12T05:09:59.900Z,102901.00
2023-02-12T05:12:27.633Z,102895.00
2023-02-12T05:14:55.352Z,102885.00
2023-02-12T05:17:23.731Z,102910.00
2023-02-12T05:19:51.978Z,102898.00
2023-02-12T05:22:22.770Z,102903.00
2023-02-12T05:24:52.126Z,102891.00
2023-02-12T05:27:19.876Z,102874.00
2023-02-12T05:29:47.583Z,102891.00
2023-02-12T05:32:15.331Z,102889.00
2023-02-12T05:34:43.072Z,102882.00
2023-02-12T05:37:11.023Z,102902.00
2023-02-12T05:39:38.811Z,102899.00
2023-02-12T05:42:08.156Z,102906.00
2023-02-12T05:44:35.963Z,102884.00
2023-02-12T05:47:03.643Z,102902.00
2023-02-12T05:49:31.337Z,102903.00
2023-02-12T05:51:59.113Z,102903.00
2023-02-12T05:54:26.814Z,102874.00
2023-02-12T05:56:54.706Z,102906.00
2023-02-12T05:59:24.864Z,102920.00
2023-02-12T06:01:53.389Z,102906.00
2023-02-12T06:04:23.990Z,102905.00
2023-02-12T06:06:52.463Z,102916.00
2023-02-12T06:09:20.281Z,102902.00
2023-02-12T06:11:48.029Z,102914.00
2023-02-12T06:14:17.376Z,102908.00
2023-02-12T06:16:48.448Z,102906.00
2023-02-12T06:19:16.737Z,102921.00
2023-02-12T06:21:44.633Z,102921.00
2023-02-12T06:24:13.339Z,102922.00
2023-02-12T06:26:41.427Z,102924.00
2023-02-12T06:29:09.290Z,102926.00
2023-02-12T06:31:38.521Z,102918.00
2023-02-12T06:34:09.364Z,102925.00
2023-02-12T06:36:38.417Z,102919.00
2023-02-12T06:39:06.727Z,102925.00
2023-02-12T06:41:35.112Z,102924.00
2023-02-12T06:44:02.827Z,102908.00
2023-02-12T06:46:30.928Z,102906.00
2023-02-12T06:49:00.264Z,102936.00
2023-02-12T06:51:31.376Z,102936.00
2023-02-12T06:53:59.145Z,102941.00
2023-02-12T06:56:28.030Z,102938.00
2023-02-12T06:58:58.409Z,102960.00
2023-02-12T07:01:27.766Z,102935.00
2023-02-12T07:03:57.204Z,102949.00
2023-02-12T07:06:25.764Z,102935.00
2023-02-12T07:08:55.172Z,102957.00
2023-02-12T07:11:25.020Z,102957.00
2023-02-12T07:13:52.748Z,102955.00
2023-02-12T07:16:20.728Z,102959.00
2023-02-12T07:18:48.831Z,102956.00
2023-02-12T07:21:17.734Z,102965.00
2023-02-12T07:23:51.003Z,102943.00
2023-02-12T07:26:22.102Z,102955.00
2023-02-12T07:28:50.574Z,102961.00
2023-02-12T07:31:20.429Z,102964.00
2023-02-12T07:33:48.881Z,102971.00
2023-02-12T07:36:20.559Z,102951.00
2023-02-12T07:38:48.540Z,102963.00
2023-02-12T07:41:18.838Z,102971.00
2023-02-12T07:43:49.604Z,102970.00
2023-02-12T07:46:19.521Z,102965.00
2023-02-12T07:48:47.968Z,102957.00
2023-02-12T07:51:19.147Z,102969.00
2023-02-12T07:53:46.873Z,102970.00
2023-02-12T07:56:16.262Z,102949.00
2023-02-12T07:58:46.022Z,102978.00
2023-02-12T08:01:18.011Z,102970.00
2023-02-12T08:03:47.076Z,102971.00
2023-02-12T08:06:17.882Z,102980.00
2023-02-12T08:08:46.071Z,102975.00
2023-02-12T08:11:15.670Z,102978.00
2023-02-12T08:13:43.741Z,102977.00
2023-02-12T08:16:13.600Z,102983.00
2023-02-12T08:18:43.310Z,102973.00
2023-02-12T08:21:13.235Z,102975.00
2023-02-12T08:23:41.394Z,102979.00
2023-02-12T08:26:11.249Z,102976.00
2023-02-12T08:28:41.763Z,103000.00
2023-02-12T08:31:11.489Z,102994.00
2023-02-12T08:33:39.244Z,103008.00
2023-02-12T08:36:11.899Z,103005.00
2023-02-12T08:38:40.307Z,103004.00
2023-02-12T08:41:10.020Z,103013.00
2023-02-12T08:43:38.192Z,103001.00
2023-02-12T08:46:07.291Z,102998.00
2023-02-12T08:48:35.621Z,103004.00
2023-02-12T08:51:10.885Z,103012.00
2023-02-12T08:53:39.682Z,103017.00
2023-02-12T08:56:08.721Z,102994.00
2023-02-12T08:58:37.906Z,103008.00
2023-02-12T09:01:10.360Z,103010.00
2023-02-12T09:03:38.434Z,103019.00
2023-02-12T09:06:08.991Z,103035.00
2023-02-12T09:08:37.701Z,103036.00
2023-02-12T09:11:07.360Z,103022.00
2023-02-12T09:13:35.473Z,103035.00
2023-02-12T09:16:04.692Z,103036.00
2023-02-12T09:18:32.725Z,103038.00
2023-02-12T09:21:03.312Z,103036.00
2023-02-12T09:23:33.115Z,103047.00
2023-02-12T09:26:00.948Z,103048.00
2023-02-12T09:28:28.777Z,103043.00
2023-02-12T09:30:56.632Z,103054.00
2023-02-12T09:33:25.069Z,103050.00
2023-02-12T09:35:52.920Z,103050.00
2023-02-12T09:38:20.764Z,103041.00
2023-02-12T09:41:10.513Z,103047.00
2023-02-12T09:43:44.598Z,103059.00
2023-02-12T09:46:20.104Z,103046.00
2023-02-12T09:48:58.180Z,103068.00
2023-02-12T09:51:26.854Z,103069.00
2023-02-12T09:54:03.875Z,103065.00
2023-02-12T09:56:36.443Z,103073.00
2023-02-12T09:59:06.732Z,103057.00
2023-02-12T10:01:35.223Z,103061.00
2023-02-12T10:04:05.978Z,103065.00
2023-02-12T10:06:39.973Z,103055.00
2023-02-12T10:09:24.377Z,103069.00
2023-02-12T10:12:04.364Z,103057.00
2023-02-12T10:15:03.370Z,103070.00
2023-02-12T10:17:38.837Z,103072.00
2023-02-12T10:20:26.214Z,103069.00
2023-02-12T10:23:04.040Z,103065.00
2023-02-12T10:25:48.572Z,103081.00
2023-02-12T10:28:20.861Z,103075.00
2023-02-12T10:30:54.738Z,103061.00
2023-02-12T10:33:27.920Z,103078.00
2023-02-12T10:35:59.008Z,103075.00
2023-02-12T10:38:31.458Z,103073.00
2023-02-12T10:41:01.891Z,103077.00
2023-02-12T10:43:31.584Z,103078.00
2023-02-12T10:45:59.443Z,103073.00
2023-02-12T10:48:32.764Z,103066.00
2023-02-12T10:51:15.462Z,103047.00
2023-02-12T10:53:44.950Z,103078.00
2023-02-12T10:56:18.290Z,103081.00
2023-02-12T10:58:59.272Z,103075.00
2023-02-12T11:01:29.195Z,103078.00
2023-02-12T11:03:58.806Z,103074.00
2023-02-12T11:06:28.957Z,103065.00
2023-02-12T11:08:58.149Z,103066.00
2023-02-12T11:11:30.656Z,103059.00
2023-02-12T11:14:03.676Z,103062.00
2023-02-12T11:16:33.990Z,103061.00
2023-02-12T11:19:04.703Z,103064.00
2023-02-12T11:21:33.400Z,103042.00
2023-02-12T11:24:23.877Z,103057.00
2023-02-12T11:26:51.662Z,103060.00
2023-02-12T11:29:24.621Z,103058.00
2023-02-12T11:32:04.129Z,103054.00
2023-02-12T11:34:32.280Z,103024.00
2023-02-12T11:37:00.264Z,103035.00
2023-02-12T11:39:30.078Z,103047.00
2023-02-12T11:41:59.709Z,103040.00
2023-02-12T11:44:33.383Z,103043.00
2023-02-12T11:47:08.847Z,103028.00
2023-02-12T11:49:44.485Z,103033.00
2023-02-12T11:52:22.341Z,103033.00
2023-02-12T11:54:53.470Z,103014.00
2023-02-12T11:57:37.722Z,103035.00
2023-02-12T12:00:15.153Z,103024.00
2023-02-12T12:02:47.835Z,103029.00
2023-02-12T12:05:19.678Z,103018.00
2023-02-12T12:07:52.443Z,103021.00
2023-02-12T12:10:33.069Z,103026.00
2023-02-12T12:13:05.239Z,103013.00
2023-02-12T12:15:55.018Z,103019.00
2023-02-12T12:18:44.798Z,103026.00
2023-02-12T12:21:20.962Z,103016.00
2023-02-12T12:23:54.178Z,103016.00
2023-02-12T12:26:25.197Z,103026.00
2023-02-12T12:28:59.381Z,103017.00
2023-02-12T12:31:32.840Z,103018.00
2023-02-12T12:34:06.697Z,103022.00
2023-02-12T12:37:02.249Z,103021.00
2023-02-12T12:39:36.892Z,103008.00
2023-02-12T12:42:29.478Z,102997.00
2023-02-12T12:45:08.595Z,102991.00
2023-02-12T12:47:48.033Z,103005.00
2023-02-12T12:50:38.644Z,102986.00
2023-02-12T12:53:19.852Z,102996.00
2023-02-12T12:56:12.041Z,102997.00
2023-02-12T12:58:50.885Z,102995.00
2023-02-12T13:01:42.112Z,102993.00
2023-02-12T13:04:36.516Z,102984.00
2023-02-12T13:07:19.486Z,102990.00
2023-02-12T13:10:04.076Z,102981.00
2023-02-12T13:12:50.664Z,102975.00
2023-02-12T13:15:28.987Z,102989.00
2023-02-12T13:18:07.505Z,102956.00
2023-02-12T13:20:46.259Z,102979.00
2023-02-12T13:23:17.132Z,102959.00
2023-02-12T13:25:53.773Z,102976.00
2023-02-12T13:28:28.809Z,102966.00
2023-02-12T13:30:57.710Z,102969.00
2023-02-12T13:33:29.339Z,102973.00
2023-02-12T13:36:01.493Z,102973.00
2023-02-12T13:38:33.593Z,102972.00
2023-02-12T13:41:05.829Z,102973.00
2023-02-12T13:43:44.944Z,102967.00
2023-02-12T13:46:19.633Z,102981.00
2023-02-12T13:49:01.602Z,102967.00
2023-02-12T13:51:42.282Z,102964.00
2023-02-12T13:54:25.410Z,102966.00
2023-02-12T13:56:55.554Z,102962.00
2023-02-12T13:59:46.838Z,102957.00
2023-02-12T14:02:46.031Z,102965.00
2023-02-12T14:05:22.147Z,102960.00
2023-02-12T14:07:53.678Z,102953.00
2023-02-12T14:10:25.143Z,102962.00
2023-02-12T14:12:54.719Z,102951.00
2023-02-12T14:15:34.994Z,102953.00
2023-02-12T14:18:21.672Z,102970.00
2023-02-12T14:20:49.833Z,102948.00
2023-02-12T14:23:29.060Z,102969.00
2023-02-12T14:26:01.409Z,102957.00
2023-02-12T14:28:35.375Z,102973.00
2023-02-12T14:31:31.419Z,102977.00
2023-02-12T14:34:49.384Z,102967.00
2023-02-12T14:37:35.392Z,102973.00
2023-02-12T14:40:44.456Z,102973.00
2023-02-12T14:43:28.499Z,102979.00
2023-02-12T14:45:58.366Z,102971.00
2023-02-12T14:48:51.844Z,102972.00
2023-02-12T14:51:27.094Z,102969.00
2023-02-12T14:53:57.078Z,102972.00
2023-02-12T14:56:26.826Z,102983.00
2023-02-12T14:58:59.760Z,102980.00
2023-02-12T15:01:33.070Z,102991.00
2023-02-12T15:04:11.617Z,102984.00
2023-02-12T15:06:44.432Z,102988.00
2023-02-12T15:09:20.553Z,102970.00
2023-02-12T15:11:54.154Z,102976.00
2023-02-12T15:14:28.515Z,102981.00
2023-02-12T15:17:00.158Z,102968.00
2023-02-12T15:19:41.569Z,102979.00
2023-02-12T15:22:21.952Z,102960.00
2023-02-12T15:24:50.042Z,102987.00
2023-02-12T15:27:21.672Z,102977.00
2023-02-12T15:29:52.572Z,102982.00
2023-02-12T15:32:25.478Z,102976.00
2023-02-12T15:34:56.851Z,102982.00
2023-02-12T15:37:28.218Z,102975.00
2023-02-12T15:39:59.205Z,102981.00
2023-02-12T15:42:31.859Z,102982.00
2023-02-12T15:45:22.073Z,102976.00
2023-02-12T15:48:00.288Z,102988.00
2023-02-12T15:50:29.129Z,102979.00
2023-02-12T15:52:57.763Z,102987.00
2023-02-12T15:55:28.409Z,102986.00
2023-02-12T15:57:59.076Z,102985.00
2023-02-12T16:00:31.389Z,102982.00
2023-02-12T16:02:59.253Z,102997.00
2023-02-12T16:05:27.842Z,102988.00
2023-02-12T16:07:56.284Z,102984.00
2023-02-12T16:10:24.949Z,102970.00
2023-02-12T16:12:53.762Z,102981.00
2023-02-12T16:15:32.396Z,102981.00
2023-02-12T16:18:04.048Z,102988.00
2023-02-12T16:20:32.607Z,102972.00
2023-02-12T16:23:00.887Z,102948.00
2023-02-12T16:25:30.742Z,102988.00
2023-02-12T16:28:01.464Z,103001.00
2023-02-12T16:30:32.996Z,102999.00
2023-02-12T16:33:01.938Z,103000.00
2023-02-12T16:35:32.362Z,103006.00
2023-02-12T16:38:04.552Z,102992.00
2023-02-12T16:40:37.235Z,102999.00
2023-02-12T16:43:23.703Z,103004.00
2023-02-12T16:46:04.025Z,103009.00
2023-02-12T16:48:33.517Z,103016.00
2023-02-12T16:51:06.019Z,102994.00
2023-02-12T16:53:43.622Z,103020.00
2023-02-12T16:56:18.114Z,103020.00
2023-02-12T16:58:48.280Z,103013.00
2023-02-12T17:01:24.523Z,103022.00
2023-02-12T17:03:53.378Z,103009.00
2023-02-12T17:06:23.846Z,102983.00
2023-02-12T17:08:52.418Z,103011.00
2023-02-12T17:11:20.621Z,103021.00
2023-02-12T17:13:50.669Z,103016.00
2023-02-12T17:16:30.336Z,103018.00
2023-02-12T17:19:01.494Z,103021.00
2023-02-12T17:21:32.334Z,103019.00
2023-02-12T17:24:00.252Z,103014.00
2023-02-12T17:26:28.443Z,103014.00
2023-02-12T17:28:56.608Z,103017.00
2023-02-12T17:31:24.501Z,103023.00
2023-02-12T17:33:52.522Z,103017.00
2023-02-12T17:36:21.677Z,103024.00
2023-02-12T17:38:49.600Z,103022.00
2023-02-12T17:41:17.413Z,103007.00
2023-02-12T17:43:46.258Z,103025.00
2023-02-12T17:46:22.498Z,103025.00
2023-02-12T17:48:50.340Z,103026.00
2023-02-12T17:51:18.261Z,103035.00
2023-02-12T17:53:47.502Z,103031.00
2023-02-12T17:56:16.807Z,103048.00
2023-02-12T17:58:45.786Z,103041.00
2023-02-12T18:01:16.539Z,103030.00
2023-02-12T18:03:44.382Z,103034.00
2023-02-12T18:06:14.207Z,103014.00
2023-02-12T18:08:42.392Z,103047.00
2023-02-12T18:11:12.511Z,103025.00
2023-02-12T18:13:41.950Z,103051.00
2023-02-12T18:16:11.058Z,103028.00
2023-02-12T18:18:41.070Z,103044.00
2023-02-12T18:21:10.546Z,103041.00
2023-02-12T18:23:39.008Z,102985.00
2023-02-12T18:26:08.145Z,103020.00
2023-02-12T18:28:38.601Z,103041.00
2023-02-12T18:31:07.554Z,103043.00
2023-02-12T18:33:35.834Z,103034.00
2023-02-12T18:36:06.744Z,103029.00
2023-02-12T18:38:35.108Z,103028.00
2023-02-12T18:41:07.318Z,103028.00
2023-02-12T18:43:36.052Z,102987.00
2023-02-12T18:46:08.869Z,103027.00
2023-02-12T18:48:37.089Z,102997.00
2023-02-12T18:51:06.971Z,103028.00
2023-02-12T18:53:35.571Z,103025.00
2023-02-12T18:56:05.895Z,103023.00
2023-02-12T18:58:34.013Z,103021.00
2023-02-12T19:01:02.440Z,103037.00
2023-02-12T19:03:31.522Z,103027.00
2023-02-12T19:06:05.276Z,103013.00
2023-02-12T19:08:33.062Z,103023.00
2023-02-12T19:11:00.942Z,103014.00
2023-02-12T19:13:28.729Z,103028.00
2023-02-12T19:15:56.733Z,103032.00
2023-02-12T19:18:24.520Z,103034.00
2023-02-12T19:20:56.460Z,103028.00
2023-02-12T19:23:24.552Z,103028.00
2023-02-12T19:25:52.352Z,103038.00
2023-02-12T19:28:20.252Z,102999.00
2023-02-12T19:30:48.321Z,103008.00
2023-02-12T19:33:16.237Z,103031.00
2023-02-12T19:35:45.747Z,103012.00
2023-02-12T19:38:15.147Z,103006.00
2023-02-12T19:40:42.996Z,103026.00
2023-02-12T19:43:10.827Z,103023.00
2023-02-12T19:45:38.676Z,103041.00
2023-02-12T19:48:06.758Z,103042.00
2023-02-12T19:50:35.486Z,103045.00
2023-02-12T19:53:03.354Z,103014.00
2023-02-12T19:55:32.503Z,103047.00
2023-02-12T19:58:00.485Z,103045.00
2023-02-12T20:00:28.373Z,103000.00
2023-02-12T20:02:56.262Z,103020.00
2023-02-12T20:05:24.120Z,103017.00
2023-02-12T20:07:54.008Z,103040.00
2023-02-12T20:10:21.912Z,103023.00
2023-02-12T20:12:51.240Z,103055.00
2023-02-12T20:15:19.175Z,103061.00
2023-02-12T20:17:46.944Z,103065.00
2023-02-12T20:20:14.987Z,103065.00
2023-02-12T20:22:43.245Z,103071.00
2023-02-12T20:25:10.974Z,103051.00
2023-02-12T20:27:38.696Z,103072.00
2023-02-12T20:30:09.806Z,103074.00
2023-02-12T20:32:37.560Z,103068.00
2023-02-12T20:35:05.696Z,103074.00
2023-02-12T20:37:33.730Z,103065.00
2023-02-12T20:40:01.865Z,103016.00
2023-02-12T20:42:29.879Z,103038.00
2023-02-12T20:44:57.660Z,103065.00
2023-02-12T20:47:29.328Z,103067.00
2023-02-12T20:49:57.201Z,103048.00
2023-02-12T20:52:25.925Z,103060.00
2023-02-12T20:54:53.633Z,103024.00
2023-02-12T20:57:21.418Z,103050.00
2023-02-12T20:59:50.114Z,103064.00
2023-02-12T21:02:18.522Z,103045.00
2023-02-12T21:04:47.639Z,103057.00
2023-02-12T21:07:15.468Z,103052.00
2023-02-12T21:09:43.633Z,103056.00
2023-02-12T21:12:11.298Z,103052.00
2023-02-12T21:14:39.144Z,103056.00
2023-02-12T21:17:06.883Z,103019.00
2023-02-12T21:19:36.785Z,103050.00
2023-02-12T21:22:05.944Z,103047.00
2023-02-12T21:24:37.407Z,103064.00
2023-02-12T21:27:05.541Z,103047.00
2023-02-12T21:29:33.569Z,103045.00
2023-02-12T21:32:01.898Z,103050.00
2023-02-12T21:34:29.718Z,103047.00
2023-02-12T21:36:57.860Z,103045.00
2023-02-12T21:39:29.147Z,103056.00
2023-02-12T21:41:59.971Z,103034.00
2023-02-12T21:44:27.885Z,103050.00
2023-02-12T21:46:56.080Z,103045.00
2023-02-12T21:49:27.429Z,103045.00
2023-02-12T21:51:57.248Z,103037.00
2023-02-12T21:54:25.510Z,103044.00
2023-02-12T21:56:54.705Z,103036.00
2023-02-12T21:59:24.674Z,103019.00
2023-02-12T22:01:55.215Z,103025.00
2023-02-12T22:04:23.028Z,103031.00
2023-02-12T22:06:52.533Z,103026.00
2023-02-12T22:09:22.128Z,103015.00
2023-02-12T22:11:52.194Z,103022.00
2023-02-12T22:14:24.978Z,103033.00
2023-02-12T22:16:55.670Z,103024.00
2023-02-12T22:19:23.953Z,103025.00
2023-02-12T22:21:52.521Z,103005.00
2023-02-12T22:24:21.419Z,103017.00
2023-02-12T22:26:49.187Z,103028.00
2023-02-12T22:29:17.641Z,103030.00
2023-02-12T22:31:47.946Z,103027.00
2023-02-12T22:34:18.584Z,103024.00
2023-02-12T22:36:47.163Z,103027.00
2023-02-12T22:39:17.426Z,103026.00
2023-02-12T22:41:45.209Z,103022.00
2023-02-12T22:44:14.044Z,103019.00
2023-02-12T22:46:42.118Z,103037.00
2023-02-12T22:49:11.286Z,103049.00
2023-02-12T22:51:39.513Z,103016.00
2023-02-12T22:54:07.707Z,103021.00
2023-02-12T22:56:35.527Z,103031.00
2023-02-12T22:59:03.512Z,103034.00
2023-02-12T23:01:31.867Z,103026.00
2023-02-12T23:03:59.964Z,103020.00
2023-02-12T23:06:30.788Z,103028.00
2023-02-12T23:09:00.573Z,103029.00
2023-02-12T23:11:29.632Z,103027.00
2023-02-12T23:13:57.915Z,103026.00
2023-02-12T23:16:26.058Z,103034.00
2023-02-12T23:18:56.411Z,103021.00
2023-02-12T23:21:24.659Z,103020.00
2023-02-12T23:23:53.858Z,103028.00
2023-02-12T23:26:21.796Z,103018.00
2023-02-12T23:28:49.856Z,103021.00
2023-02-12T23:31:18.165Z,103023.00
2023-02-12T23:33:46.110Z,103019.00
2023-02-12T23:36:13.950Z,103021.00
2023-02-12T23:38:41.784Z,103015.00
2023-02-12T23:41:10.890Z,103022.00
2023-02-12T23:43:38.609Z,103019.00
2023-02-12T23:46:09.140Z,103023.00
2023-02-12T23:48:40.093Z,103016.00
2023-02-12T23:51:11.151Z,103013.00
2023-02-12T23:53:38.892Z,103011.00
2023-02-12T23:56:07.419Z,102990.00
2023-02-12T23:58:36.638Z,103014.00
